KHII

Lake Havasu City Airport

Lake Havasu City, Arizona, USA
METAR KHII 240530Z AUTO 02005KT 10SM CLR 24/05 A2986 RMK AO2
Observed Flight Rules
Oct-24 @ 05:30 UTC (20 minutes ago) Visual Flight Rules
Wind Visibility Clouds
20° at 5 knots 10 miles
  • Clear skies
Temperatures Readings
Current 24°C / 75°F
Dewpoint 5°C / 41°F
Humidity 29%
Altimeter 29.86" Hg
Pressure 1011 hPa
Elevation 238
METAR KHII 240530Z AUTO 02005KT 10SM CLR 24/05 A2986 RMK AO2
Observed Flight Rules
Oct-24 @ 05:30 UTC
(20 minutes ago)
VFR
Wind Visibility
20° at 5 knots 10 miles
Clouds
  • Clear skies
Temperature Dewpoint
24°C / 75°F 5°C / 41°F
Humidity Altimeter Pressure
29% 29.86" Hg 1011 hPa